Time;durP1;ratioP1;P1;durP2;ratioP2;P2;SDS_P1;SDS_P2;PMS_P1;PMS_P2;Temp;Humidity;BMP_temperature;BMP_pressure;BME280_temperature;BME280_humidity;BME280_pressure;Samples;Min_cycle;Max_cycle;Signal;HPM_P1;HPM_P2
2022/11/16 13:12:05;;;;;;;23.27;14.02;;;;;;;;;;5110041;27;20457;-64
2022/11/16 13:14:40;;;;;;;21.23;13.82;;;;;;;;;;5109707;28;20106;-64
2022/11/16 13:17:06;;;;;;;24.73;15.55;;;;;;;;;;5107923;28;20103;-64
2022/11/16 13:19:37;;;;;;;21.05;13.30;;;;;;;;;;5108389;28;20111;-65
2022/11/16 13:22:22;;;;;;;19.50;13.52;;;;;;;;;;5109521;28;20020;-62
2022/11/16 13:25:13;;;;;;;20.80;12.93;;;;;;;;;;5109368;28;20026;-63
2022/11/16 13:27:54;;;;;;;21.60;14.25;;;;;;;;;;5107860;28;20129;-64
2022/11/16 13:30:55;;;;;;;18.08;12.55;;;;;;;;;;5107559;28;20035;-63
2022/11/16 13:33:43;;;;;;;19.27;12.85;;;;;;;;;;5064068;28;20750;-63
2022/11/16 13:36:45;;;;;;;19.77;12.27;;;;;;;;;;5104498;28;20028;-64
2022/11/16 13:39:13;;;;;;;25.67;11.63;;;;;;;;;;5062117;28;20126;-64
2022/11/16 13:41:44;;;;;;;19.20;12.40;;;;;;;;;;5098143;28;20478;-63
2022/11/16 13:44:29;;;;;;;17.33;12.13;;;;;;;;;;5102195;28;20479;-64
2022/11/16 13:47:03;;;;;;;17.90;12.02;;;;;;;;;;5105874;28;20041;-65
2022/11/16 13:49:52;;;;;;;18.23;12.15;;;;;;;;;;5107201;28;20493;-64
2022/11/16 13:52:18;;;;;;;16.13;11.50;;;;;;;;;;5105974;28;20055;-66
2022/11/16 13:54:48;;;;;;;17.20;11.73;;;;;;;;;;5107128;28;20112;-62
2022/11/16 13:57:28;;;;;;;17.83;11.75;;;;;;;;;;5106873;28;20031;-63
2022/11/16 14:00:27;;;;;;;18.02;12.32;;;;;;;;;;5107135;28;20023;-65
2022/11/16 14:03:10;;;;;;;33.47;15.60;;;;;;;;;;5102686;28;20517;-63
2022/11/16 14:05:40;;;;;;;54.05;21.88;;;;;;;;;;5106751;28;20027;-62
2022/11/16 14:08:18;;;;;;;29.58;15.80;;;;;;;;;;5104880;28;20027;-63
2022/11/16 14:10:43;;;;;;;29.88;16.05;;;;;;;;;;5121348;28;20044;-63
2022/11/16 14:13:36;;;;;;;35.50;16.42;;;;;;;;;;5107140;28;20101;-63
2022/11/16 14:16:20;;;;;;;28.25;14.52;;;;;;;;;;5105160;28;20487;-63
2022/11/16 14:18:59;;;;;;;31.83;16.63;;;;;;;;;;5103531;28;20032;-63
2022/11/16 14:21:25;;;;;;;25.75;16.20;;;;;;;;;;5102103;28;20039;-64
2022/11/16 14:24:15;;;;;;;34.67;16.40;;;;;;;;;;5092525;28;20110;-63
2022/11/16 14:27:14;;;;;;;27.30;16.30;;;;;;;;;;5091003;28;20146;-63
2022/11/16 14:30:15;;;;;;;43.40;19.90;;;;;;;;;;5092297;28;20047;-63
2022/11/16 14:32:51;;;;;;;34.03;17.33;;;;;;;;;;5092217;28;20457;-63
2022/11/16 14:35:35;;;;;;;29.70;16.77;;;;;;;;;;5092834;28;20100;-63
2022/11/16 14:38:07;;;;;;;34.65;19.00;;;;;;;;;;5092875;28;20069;-62
2022/11/16 14:40:42;;;;;;;41.58;19.55;;;;;;;;;;5092752;28;20646;-62
2022/11/16 14:43:26;;;;;;;40.15;18.38;;;;;;;;;;5092579;28;20031;-62
2022/11/16 14:46:00;;;;;;;32.92;17.00;;;;;;;;;;5092493;28;20426;-64
2022/11/16 14:48:27;;;;;;;44.83;20.80;;;;;;;;;;5092324;28;20059;-66
2022/11/16 14:50:59;;;;;;;53.08;21.33;;;;;;;;;;5091976;28;20521;-64
2022/11/16 14:53:28;;;;;;;36.22;18.88;;;;;;;;;;5092174;28;20028;-66
2022/11/16 14:56:05;;;;;;;40.00;19.25;;;;;;;;;;5092398;28;20033;-71
2022/11/16 14:58:31;;;;;;;36.65;17.73;;;;;;;;;;5089712;28;20451;-70
2022/11/16 15:01:02;;;;;;;30.55;17.27;;;;;;;;;;5091858;28;20028;-70
2022/11/16 15:03:40;;;;;;;36.95;17.27;;;;;;;;;;5092127;28;20028;-72
2022/11/16 15:06:06;;;;;;;31.77;16.13;;;;;;;;;;5093218;28;20371;-65
2022/11/16 15:08:45;;;;;;;26.55;15.32;;;;;;;;;;5092305;28;20059;-68
2022/11/16 15:14:21;;;;;;;31.50;15.85;;;;;;;;;;5092167;28;20089;-72
2022/11/16 15:16:55;;;;;;;30.55;16.38;;;;;;;;;;5092766;28;20031;-71
2022/11/16 15:19:21;;;;;;;27.50;16.05;;;;;;;;;;5092631;28;20036;-72
2022/11/16 15:21:58;;;;;;;32.92;15.30;;;;;;;;;;5091544;28;20520;-71
2022/11/16 15:24:28;;;;;;;27.65;16.15;;;;;;;;;;5091896;28;20035;-72
2022/11/16 15:27:00;;;;;;;33.03;15.30;;;;;;;;;;5092761;28;20038;-72
2022/11/16 15:29:34;;;;;;;32.60;16.15;;;;;;;;;;5092832;28;20028;-72
2022/11/16 15:32:00;;;;;;;32.30;15.82;;;;;;;;;;5092464;28;20052;-70
2022/11/16 15:34:26;;;;;;;26.92;15.30;;;;;;;;;;5092018;28;20089;-69
2022/11/16 15:36:51;;;;;;;28.75;15.52;;;;;;;;;;5092660;28;20490;-70
2022/11/16 15:39:20;;;;;;;29.67;16.05;;;;;;;;;;5092620;28;20410;-72
2022/11/16 15:41:46;;;;;;;29.88;15.60;;;;;;;;;;5092255;28;20040;-72
2022/11/16 15:44:19;;;;;;;28.63;16.20;;;;;;;;;;5092477;28;20028;-67
2022/11/16 15:46:49;;;;;;;25.00;14.95;;;;;;;;;;5092376;28;20050;-72
2022/11/16 15:49:27;;;;;;;26.90;15.40;;;;;;;;;;5092730;28;20058;-71
2022/11/16 15:51:52;;;;;;;26.27;15.10;;;;;;;;;;5092543;28;20137;-70
2022/11/16 15:54:27;;;;;;;26.42;14.25;;;;;;;;;;5092334;28;20020;-67
2022/11/16 15:56:56;;;;;;;28.98;15.20;;;;;;;;;;5092448;28;20035;-69
2022/11/16 15:59:27;;;;;;;26.98;14.80;;;;;;;;;;5092694;28;20101;-68
2022/11/16 16:01:54;;;;;;;29.55;15.15;;;;;;;;;;5092015;28;20030;-71
2022/11/16 16:04:20;;;;;;;28.15;14.80;;;;;;;;;;5092114;28;20449;-72
2022/11/16 16:06:52;;;;;;;27.73;15.60;;;;;;;;;;5092261;28;20073;-71
2022/11/16 16:09:27;;;;;;;27.55;15.20;;;;;;;;;;5091660;28;20036;-71
2022/11/16 16:12:23;;;;;;;29.70;14.50;;;;;;;;;;5092111;28;20063;-70
2022/11/16 16:14:51;;;;;;;28.50;15.45;;;;;;;;;;5089506;28;20038;-71
2022/11/16 16:17:25;;;;;;;30.17;15.05;;;;;;;;;;5090288;28;20086;-72
2022/11/16 16:20:02;;;;;;;28.63;14.82;;;;;;;;;;5091451;28;20087;-71
2022/11/16 16:22:31;;;;;;;27.48;14.70;;;;;;;;;;5091638;28;20039;-71
2022/11/16 16:24:58;;;;;;;23.65;13.85;;;;;;;;;;5091453;28;20028;-72
2022/11/16 16:27:25;;;;;;;23.05;13.55;;;;;;;;;;5091824;28;20031;-72
2022/11/16 16:29:53;;;;;;;24.90;13.48;;;;;;;;;;5091289;28;20027;-70
2022/11/16 16:32:23;;;;;;;25.58;14.50;;;;;;;;;;5091971;28;20063;-72
2022/11/16 16:34:49;;;;;;;23.60;13.60;;;;;;;;;;5091585;28;20032;-71
2022/11/16 16:37:15;;;;;;;27.60;14.00;;;;;;;;;;5091289;28;20028;-70
2022/11/16 16:39:41;;;;;;;26.23;14.00;;;;;;;;;;5091536;28;20028;-71
2022/11/16 16:42:12;;;;;;;25.40;13.60;;;;;;;;;;5091129;28;20051;-73
2022/11/16 16:44:38;;;;;;;27.77;14.90;;;;;;;;;;5090975;28;20031;-70
2022/11/16 16:47:04;;;;;;;22.52;13.65;;;;;;;;;;5091147;28;20027;-68
2022/11/16 16:49:31;;;;;;;23.65;13.88;;;;;;;;;;5091263;28;20031;-66
2022/11/16 16:51:57;;;;;;;25.83;13.98;;;;;;;;;;5091368;28;20110;-65
2022/11/16 16:54:24;;;;;;;25.55;14.40;;;;;;;;;;5091379;28;20526;-65
2022/11/16 16:56:50;;;;;;;23.23;13.20;;;;;;;;;;5091063;28;20043;-65
2022/11/16 16:59:17;;;;;;;26.13;13.88;;;;;;;;;;5090468;28;20512;-66
2022/11/16 17:01:43;;;;;;;26.23;16.23;;;;;;;;;;5083646;28;20571;-70
2022/11/16 17:04:08;;;;;;;33.30;19.42;;;;;;;;;;5076632;28;20032;-66
2022/11/16 17:06:34;;;;;;;31.80;19.60;;;;;;;;;;5089739;28;20039;-65
2022/11/16 17:09:00;;;;;;;27.13;17.45;;;;;;;;;;5089572;28;20040;-65
2022/11/16 17:11:26;;;;;;;26.42;17.52;;;;;;;;;;5090501;28;20047;-70
2022/11/16 17:13:52;;;;;;;24.40;15.57;;;;;;;;;;5090671;28;20068;-67
2022/11/16 17:16:17;;;;;;;28.92;14.48;;;;;;;;;;5090895;28;20070;-66
2022/11/16 17:18:43;;;;;;;25.80;13.93;;;;;;;;;;5090763;28;20076;-67
2022/11/16 17:21:09;;;;;;;23.15;14.43;;;;;;;;;;5090863;28;20024;-66
2022/11/16 17:23:36;;;;;;;27.25;14.60;;;;;;;;;;5090704;28;20360;-66
2022/11/16 17:26:06;;;;;;;33.20;15.63;;;;;;;;;;5090877;28;20076;-66
2022/11/16 17:28:33;;;;;;;27.08;15.13;;;;;;;;;;5089351;28;20093;-63
2022/11/16 17:31:02;;;;;;;25.42;15.40;;;;;;;;;;5090652;28;20020;-63
2022/11/16 17:33:32;;;;;;;27.15;15.18;;;;;;;;;;5090354;28;20047;-63
2022/11/16 17:36:00;;;;;;;25.13;14.93;;;;;;;;;;5090695;28;20064;-67
2022/11/16 17:38:27;;;;;;;25.55;14.10;;;;;;;;;;5090757;28;20035;-63
2022/11/16 17:41:03;;;;;;;23.23;14.57;;;;;;;;;;5090503;28;20123;-64
2022/11/16 17:43:29;;;;;;;23.30;13.95;;;;;;;;;;5090729;28;20028;-63
2022/11/16 17:46:06;;;;;;;23.77;14.15;;;;;;;;;;5090491;28;20084;-63
2022/11/16 17:48:33;;;;;;;20.35;13.05;;;;;;;;;;5090847;28;20047;-63
2022/11/16 17:50:59;;;;;;;25.08;14.80;;;;;;;;;;5090537;28;20028;-64
2022/11/16 17:53:25;;;;;;;24.85;14.15;;;;;;;;;;5090583;28;20031;-63
2022/11/16 17:55:52;;;;;;;23.52;14.27;;;;;;;;;;5090752;28;20042;-63
2022/11/16 17:58:17;;;;;;;23.80;13.93;;;;;;;;;;5093243;28;20522;-66
2022/11/16 18:00:43;;;;;;;24.60;14.30;;;;;;;;;;5094314;28;20036;-67
2022/11/16 18:03:08;;;;;;;24.02;14.23;;;;;;;;;;5094194;28;20031;-64
2022/11/16 18:05:35;;;;;;;26.55;14.60;;;;;;;;;;5094309;28;20031;-63
2022/11/16 18:08:03;;;;;;;23.98;13.43;;;;;;;;;;5094180;28;20028;-63
2022/11/16 18:10:29;;;;;;;23.70;14.23;;;;;;;;;;5093451;28;20081;-64
2022/11/16 18:12:57;;;;;;;26.63;14.43;;;;;;;;;;5088047;28;20040;-63
2022/11/16 18:15:25;;;;;;;27.13;15.48;;;;;;;;;;5073762;28;20066;-64
2022/11/16 18:17:51;;;;;;;26.38;14.38;;;;;;;;;;5073668;28;20032;-65
2022/11/16 18:20:16;;;;;;;26.02;14.68;;;;;;;;;;5089412;28;20032;-63
2022/11/16 18:22:44;;;;;;;25.75;14.63;;;;;;;;;;5093119;28;20032;-69
2022/11/16 18:25:10;;;;;;;26.55;15.75;;;;;;;;;;5092463;28;20042;-68
2022/11/16 18:27:37;;;;;;;26.38;14.80;;;;;;;;;;5093885;28;20193;-67
2022/11/16 18:30:07;;;;;;;25.95;14.27;;;;;;;;;;5093719;28;20020;-67
2022/11/16 18:32:33;;;;;;;26.55;14.95;;;;;;;;;;5093677;28;20070;-66
2022/11/16 18:35:00;;;;;;;26.83;13.98;;;;;;;;;;5092081;28;20048;-68
2022/11/16 18:37:27;;;;;;;24.42;14.60;;;;;;;;;;5092027;28;20046;-65
2022/11/16 18:39:53;;;;;;;27.20;14.50;;;;;;;;;;5093418;28;20028;-66
2022/11/16 18:42:18;;;;;;;24.85;13.35;;;;;;;;;;5093427;28;20024;-67
2022/11/16 18:44:45;;;;;;;23.65;13.32;;;;;;;;;;5091942;28;20043;-67
2022/11/16 18:47:10;;;;;;;25.10;14.05;;;;;;;;;;5093298;28;20036;-66
2022/11/16 18:49:36;;;;;;;23.15;13.98;;;;;;;;;;5093347;28;20036;-68
2022/11/16 18:52:03;;;;;;;23.35;13.75;;;;;;;;;;5093241;28;20443;-67
2022/11/16 18:54:31;;;;;;;21.92;13.73;;;;;;;;;;5092112;28;20111;-66
2022/11/16 18:56:57;;;;;;;26.33;14.10;;;;;;;;;;5091243;28;20047;-67
2022/11/16 18:59:24;;;;;;;23.23;14.13;;;;;;;;;;5093501;28;20027;-67
2022/11/16 19:01:51;;;;;;;23.30;13.98;;;;;;;;;;5093116;28;20040;-66
2022/11/16 19:04:17;;;;;;;23.75;13.57;;;;;;;;;;5093159;28;20024;-64
2022/11/16 19:06:44;;;;;;;24.27;14.07;;;;;;;;;;5093292;28;20027;-64
2022/11/16 19:09:10;;;;;;;23.08;12.60;;;;;;;;;;5092931;28;20047;-65
2022/11/16 19:11:35;;;;;;;22.00;12.88;;;;;;;;;;5091568;28;20625;-67
2022/11/16 19:14:12;;;;;;;21.27;13.07;;;;;;;;;;5092688;28;20098;-66
2022/11/16 19:16:38;;;;;;;22.67;12.73;;;;;;;;;;5092898;28;20031;-66
2022/11/16 19:19:03;;;;;;;26.67;13.57;;;;;;;;;;5091340;28;20036;-67
2022/11/16 19:21:30;;;;;;;24.85;13.13;;;;;;;;;;5092916;28;20399;-64
2022/11/16 19:23:56;;;;;;;25.35;13.35;;;;;;;;;;5091935;28;20034;-68
2022/11/16 19:26:24;;;;;;;28.25;12.43;;;;;;;;;;5091238;28;20020;-68
2022/11/16 19:28:51;;;;;;;21.27;12.70;;;;;;;;;;5090961;28;20032;-68
2022/11/16 19:31:28;;;;;;;20.77;12.50;;;;;;;;;;5092673;28;20020;-68
2022/11/16 19:34:00;;;;;;;20.73;12.50;;;;;;;;;;5092466;28;20028;-68
2022/11/16 19:36:28;;;;;;;23.42;13.15;;;;;;;;;;5092392;28;20070;-68
2022/11/16 19:38:55;;;;;;;26.13;12.65;;;;;;;;;;5092671;28;20028;-70
2022/11/16 19:41:21;;;;;;;23.13;12.50;;;;;;;;;;5092232;28;20039;-69
2022/11/16 19:43:51;;;;;;;27.10;12.98;;;;;;;;;;5091409;28;20042;-68
2022/11/16 19:46:20;;;;;;;;;;;;;;;;;;5091553;28;20081;-69
2022/11/16 19:48:46;;;;;;;18.15;11.80;;;;;;;;;;5092208;28;19912;-69
2022/11/16 19:51:15;;;;;;;21.13;12.65;;;;;;;;;;5092127;28;20077;-68
2022/11/16 19:53:51;;;;;;;21.20;12.30;;;;;;;;;;5091816;28;20611;-69
2022/11/16 19:56:19;;;;;;;19.27;11.90;;;;;;;;;;5091912;28;20566;-69
2022/11/16 19:58:46;;;;;;;23.88;12.98;;;;;;;;;;5092084;28;20032;-70
2022/11/16 20:01:20;;;;;;;19.73;12.77;;;;;;;;;;5092124;28;20031;-69
2022/11/16 20:03:48;;;;;;;20.30;13.10;;;;;;;;;;5091950;28;20039;-69
2022/11/16 20:06:28;;;;;;;21.08;12.07;;;;;;;;;;5092116;28;20016;-68
2022/11/16 20:08:59;;;;;;;20.70;12.95;;;;;;;;;;5091475;28;20042;-70
2022/11/16 20:11:32;;;;;;;18.90;11.32;;;;;;;;;;5091124;28;20094;-68
2022/11/16 20:14:00;;;;;;;19.67;12.50;;;;;;;;;;5091501;28;20125;-69
2022/11/16 20:16:30;;;;;;;18.98;11.57;;;;;;;;;;5091726;28;20044;-70
2022/11/16 20:18:56;;;;;;;21.00;12.23;;;;;;;;;;5091278;28;20123;-69
2022/11/16 20:21:31;;;;;;;22.67;12.63;;;;;;;;;;5091446;28;20657;-67
2022/11/16 20:24:00;;;;;;;19.50;11.55;;;;;;;;;;5091457;28;20068;-70
2022/11/16 20:26:29;;;;;;;19.92;11.90;;;;;;;;;;5091560;28;20035;-67
2022/11/16 20:28:55;;;;;;;20.77;12.18;;;;;;;;;;5091558;28;20028;-70
2022/11/16 20:31:25;;;;;;;19.73;11.30;;;;;;;;;;5091518;28;20433;-68
2022/11/16 20:33:52;;;;;;;18.10;11.68;;;;;;;;;;5089945;28;20479;-69
2022/11/16 20:36:18;;;;;;;18.92;12.15;;;;;;;;;;5091351;28;20032;-70
2022/11/16 20:38:44;;;;;;;17.75;11.98;;;;;;;;;;5091168;28;20024;-69
2022/11/16 20:41:13;;;;;;;18.80;11.77;;;;;;;;;;5086563;28;20782;-70
2022/11/16 20:43:41;;;;;;;21.83;12.70;;;;;;;;;;5091640;28;20398;-69
2022/11/16 20:46:08;;;;;;;20.10;11.65;;;;;;;;;;5091114;28;20020;-69
2022/11/16 20:48:34;;;;;;;21.08;12.75;;;;;;;;;;5091294;28;20028;-69
2022/11/16 20:51:00;;;;;;;18.38;11.45;;;;;;;;;;5091089;28;20082;-69
2022/11/16 20:53:26;;;;;;;17.27;10.93;;;;;;;;;;5088788;28;20028;-69
2022/11/16 20:55:51;;;;;;;20.55;11.68;;;;;;;;;;5091061;28;20110;-69
2022/11/16 20:58:17;;;;;;;21.58;10.93;;;;;;;;;;5091159;28;20020;-68
2022/11/16 21:00:43;;;;;;;22.40;12.23;;;;;;;;;;5088364;28;20031;-68
2022/11/16 21:03:09;;;;;;;20.42;11.20;;;;;;;;;;5079636;28;20020;-68
2022/11/16 21:05:43;;;;;;;19.70;11.70;;;;;;;;;;5091076;28;20077;-70
2022/11/16 21:08:10;;;;;;;17.90;11.50;;;;;;;;;;5090908;28;20475;-68
2022/11/16 21:10:37;;;;;;;19.77;12.07;;;;;;;;;;5089836;28;20543;-69
2022/11/16 21:16:00;;;;;;;18.13;11.15;;;;;;;;;;5078987;28;20179;-70
2022/11/16 21:18:27;;;;;;;19.33;11.43;;;;;;;;;;5090652;28;20085;-70
2022/11/16 21:21:03;;;;;;;20.25;12.55;;;;;;;;;;5088946;28;20383;-70
2022/11/16 21:23:31;;;;;;;19.10;11.88;;;;;;;;;;5070656;28;20442;-69
2022/11/16 21:26:04;;;;;;;19.65;11.70;;;;;;;;;;5070660;28;20111;-72
2022/11/16 21:28:32;;;;;;;19.70;11.65;;;;;;;;;;5070642;28;20029;-72
2022/11/16 21:31:00;;;;;;;16.67;10.70;;;;;;;;;;5082171;28;20032;-70
2022/11/16 21:33:25;;;;;;;21.30;11.13;;;;;;;;;;5093180;28;20024;-74
2022/11/16 21:35:53;;;;;;;19.10;11.43;;;;;;;;;;5074491;28;20033;-73
2022/11/16 21:38:22;;;;;;;17.45;11.63;;;;;;;;;;5074911;28;20357;-74
2022/11/16 21:40:48;;;;;;;20.88;11.63;;;;;;;;;;5074430;28;20060;-72
2022/11/16 21:43:14;;;;;;;17.60;11.07;;;;;;;;;;5074507;28;20024;-73
2022/11/16 21:45:44;;;;;;;18.73;11.30;;;;;;;;;;5074648;28;20077;-71
2022/11/16 21:48:10;;;;;;;17.33;11.15;;;;;;;;;;5074720;28;20021;-71
2022/11/16 21:50:36;;;;;;;19.85;11.45;;;;;;;;;;5075774;28;20476;-71
2022/11/16 21:53:03;;;;;;;17.90;10.93;;;;;;;;;;5075867;28;20021;-72
2022/11/16 21:55:28;;;;;;;17.95;10.98;;;;;;;;;;5075666;28;20104;-71
2022/11/16 21:57:54;;;;;;;21.15;11.55;;;;;;;;;;5075729;28;20146;-71
2022/11/16 22:00:20;;;;;;;18.88;10.85;;;;;;;;;;5075383;28;20041;-71
2022/11/16 22:02:45;;;;;;;17.45;10.98;;;;;;;;;;5075820;28;20027;-71
2022/11/16 22:07:55;;;;;;;17.50;10.95;;;;;;;;;;5075816;28;20561;-72
2022/11/16 22:10:21;;;;;;;22.05;12.02;;;;;;;;;;5075196;28;20044;-72
2022/11/16 22:12:46;;;;;;;18.30;11.18;;;;;;;;;;5090401;28;20020;-70
2022/11/16 22:15:12;;;;;;;20.70;10.90;;;;;;;;;;5093992;28;20394;-69
2022/11/16 22:17:42;;;;;;;18.92;11.35;;;;;;;;;;5095281;28;20020;-70
2022/11/16 22:20:08;;;;;;;16.33;10.73;;;;;;;;;;5095362;28;20028;-70
2022/11/16 22:22:34;;;;;;;17.58;10.23;;;;;;;;;;5094115;28;20020;-70
2022/11/16 22:24:59;;;;;;;17.85;11.10;;;;;;;;;;5095447;28;20097;-70
2022/11/16 22:27:25;;;;;;;19.27;11.60;;;;;;;;;;5092316;28;20032;-71
2022/11/16 22:29:50;;;;;;;18.88;11.73;;;;;;;;;;5075131;28;20056;-70
2022/11/16 22:32:16;;;;;;;19.27;11.82;;;;;;;;;;5075004;28;20032;-69
2022/11/16 22:34:42;;;;;;;16.98;10.48;;;;;;;;;;5074910;28;20032;-69
2022/11/16 22:37:07;;;;;;;15.10;10.45;;;;;;;;;;5074946;28;20058;-72
2022/11/16 22:39:33;;;;;;;16.88;10.80;;;;;;;;;;5074627;28;20065;-71
2022/11/16 22:41:59;;;;;;;15.50;10.43;;;;;;;;;;5074751;28;20104;-71
2022/11/16 22:44:24;;;;;;;17.25;10.85;;;;;;;;;;5088205;28;20028;-72
2022/11/16 22:46:51;;;;;;;17.63;10.60;;;;;;;;;;5095175;28;20038;-71
2022/11/16 22:49:17;;;;;;;17.55;10.63;;;;;;;;;;5094932;28;20161;-70
2022/11/16 22:51:53;;;;;;;15.73;10.23;;;;;;;;;;5094928;28;20028;-70
2022/11/16 22:54:29;;;;;;;18.58;11.52;;;;;;;;;;5094884;28;20472;-70
2022/11/16 22:56:55;;;;;;;16.88;10.68;;;;;;;;;;5093459;28;20040;-69
2022/11/16 23:01:50;;;;;;;15.77;10.25;;;;;;;;;;4992933;28;20054;-67
2022/11/16 23:04:15;;;;;;;18.65;11.23;;;;;;;;;;4995282;28;20078;-66
2022/11/16 23:06:41;;;;;;;15.85;9.88;;;;;;;;;;4995145;28;20042;-66
2022/11/16 23:09:06;;;;;;;17.38;10.70;;;;;;;;;;4995033;28;20026;-65
2022/11/16 23:17:02;;;;;;;16.73;10.60;;;;;;;;;;4995282;28;20026;-66
2022/11/16 23:27:53;;;;;;;16.45;10.48;;;;;;;;;;4995005;28;20116;-65
2022/11/16 23:30:19;;;;;;;15.68;10.13;;;;;;;;;;4975942;28;20026;-66
2022/11/16 23:32:51;;;;;;;17.30;9.93;;;;;;;;;;4990317;28;20501;-66
2022/11/16 23:35:33;;;;;;;15.25;10.38;;;;;;;;;;4991966;28;20034;-64
2022/11/16 23:38:01;;;;;;;16.58;10.38;;;;;;;;;;4993534;28;20054;-64
2022/11/16 23:40:29;;;;;;;17.50;11.93;;;;;;;;;;4994384;28;20034;-66
2022/11/16 23:45:41;;;;;;;14.32;10.00;;;;;;;;;;4994511;28;20057;-64
2022/11/16 23:51:11;;;;;;;17.17;9.88;;;;;;;;;;4994495;28;20130;-64
2022/11/16 23:53:36;;;;;;;15.70;10.45;;;;;;;;;;4994181;28;20097;-66
2022/11/16 23:56:02;;;;;;;14.55;10.20;;;;;;;;;;4993624;28;20030;-64
2022/11/16 23:58:27;;;;;;;15.15;10.05;;;;;;;;;;4976884;28;20050;-64
